createdAt,value
2022-10-17T00:02:51.429Z,38.67
2022-10-17T00:05:54.473Z,38.83
2022-10-17T00:08:57.553Z,38.45
2022-10-17T00:12:02.704Z,38.90
2022-10-17T00:15:08.030Z,38.68
2022-10-17T00:18:11.082Z,38.58
2022-10-17T00:21:17.846Z,38.80
2022-10-17T00:24:21.121Z,38.66
2022-10-17T00:27:26.157Z,38.71
2022-10-17T00:30:29.440Z,38.81
2022-10-17T00:33:33.229Z,38.86
2022-10-17T00:36:36.219Z,38.67
2022-10-17T00:39:39.750Z,38.71
2022-10-17T00:42:44.179Z,38.66
2022-10-17T00:45:47.170Z,38.79
2022-10-17T00:48:52.106Z,38.74
2022-10-17T00:51:58.623Z,38.78
2022-10-17T00:55:08.595Z,38.82
2022-10-17T00:58:13.173Z,38.54
2022-10-17T01:01:16.597Z,38.82
2022-10-17T01:04:20.447Z,38.65
2022-10-17T01:07:24.075Z,38.70
2022-10-17T01:10:33.299Z,38.70
2022-10-17T01:13:43.331Z,38.78
2022-10-17T01:16:53.258Z,38.87
2022-10-17T01:20:33.619Z,38.69
2022-10-17T01:24:29.974Z,38.95
2022-10-17T01:27:51.979Z,38.67
2022-10-17T01:31:05.598Z,38.71
2022-10-17T01:34:15.769Z,38.86
2022-10-17T01:37:25.189Z,38.53
2022-10-17T01:40:31.719Z,38.63
2022-10-17T01:43:40.343Z,38.65
2022-10-17T01:46:48.084Z,38.57
2022-10-17T01:49:55.036Z,38.59
2022-10-17T01:53:04.017Z,38.58
2022-10-17T01:56:10.595Z,38.58
2022-10-17T01:59:16.317Z,38.67
2022-10-17T02:02:22.545Z,38.75
2022-10-17T02:05:30.502Z,38.58
2022-10-17T02:08:43.050Z,38.72
2022-10-17T02:11:54.381Z,38.59
2022-10-17T02:15:18.407Z,38.69
2022-10-17T02:18:35.810Z,38.73
2022-10-17T02:21:51.112Z,38.71
2022-10-17T02:25:00.573Z,38.47
2022-10-17T02:28:12.027Z,38.67
2022-10-17T02:31:18.881Z,38.71
2022-10-17T02:34:30.199Z,38.79
2022-10-17T02:37:34.041Z,38.76
2022-10-17T02:40:38.519Z,38.42
2022-10-17T02:43:45.270Z,38.56
2022-10-17T02:46:56.798Z,38.53
2022-10-17T02:50:01.359Z,38.85
2022-10-17T02:53:09.854Z,38.67
2022-10-17T02:56:18.537Z,38.62
2022-10-17T02:59:24.228Z,38.81
2022-10-17T03:02:27.894Z,38.90
2022-10-17T03:05:32.630Z,38.85
2022-10-17T03:08:35.709Z,38.96
2022-10-17T03:11:38.837Z,38.99
2022-10-17T03:14:41.873Z,39.13
2022-10-17T03:20:49.612Z,39.14
2022-10-17T03:23:52.651Z,39.53
2022-10-17T03:26:55.648Z,39.44
2022-10-17T03:29:58.624Z,39.51
2022-10-17T03:33:01.987Z,39.44
2022-10-17T03:36:10.687Z,39.52
2022-10-17T03:39:14.115Z,39.53
2022-10-17T03:42:17.195Z,39.50
2022-10-17T03:45:20.225Z,39.38
2022-10-17T03:48:23.239Z,39.46
2022-10-17T03:51:27.673Z,39.62
2022-10-17T03:54:30.799Z,39.97
2022-10-17T03:57:35.956Z,39.85
2022-10-17T04:00:39.365Z,39.88
2022-10-17T04:03:43.171Z,40.00
2022-10-17T04:06:47.588Z,39.95
2022-10-17T04:09:50.611Z,40.06
2022-10-17T04:12:53.610Z,39.95
2022-10-17T04:15:56.977Z,39.80
2022-10-17T04:19:01.222Z,38.03
2022-10-17T04:22:08.486Z,37.98
2022-10-17T04:25:11.839Z,38.50
2022-10-17T04:28:14.847Z,39.20
2022-10-17T04:31:18.510Z,38.92
2022-10-17T04:34:21.499Z,39.11
2022-10-17T04:37:25.934Z,39.06
2022-10-17T04:40:28.938Z,38.95
2022-10-17T04:43:32.024Z,38.99
2022-10-17T04:46:36.189Z,38.85
2022-10-17T04:52:43.885Z,39.20
2022-10-17T04:55:46.877Z,39.02
2022-10-17T04:58:50.560Z,38.90
2022-10-17T05:01:53.561Z,38.87
2022-10-17T05:04:56.570Z,39.24
2022-10-17T05:08:00.925Z,38.99
2022-10-17T05:11:05.866Z,39.24
2022-10-17T05:14:09.401Z,39.24
2022-10-17T05:17:12.745Z,39.14
2022-10-17T05:20:15.873Z,39.18
2022-10-17T05:23:20.312Z,39.16
2022-10-17T05:26:24.491Z,39.27
2022-10-17T05:29:27.579Z,39.05
2022-10-17T05:32:30.831Z,38.91
2022-10-17T05:35:34.037Z,39.26
2022-10-17T05:38:38.397Z,39.34
2022-10-17T05:41:41.398Z,38.86
2022-10-17T05:44:44.376Z,39.32
2022-10-17T05:47:47.447Z,39.02
2022-10-17T05:50:50.903Z,39.36
2022-10-17T05:53:55.394Z,39.22
2022-10-17T05:56:58.580Z,39.19
2022-10-17T06:00:01.747Z,39.18
2022-10-17T06:03:05.282Z,39.10
2022-10-17T06:06:10.199Z,39.14
2022-10-17T06:09:14.728Z,39.27
2022-10-17T06:12:17.927Z,38.83
2022-10-17T06:15:20.956Z,38.64
2022-10-17T06:18:24.071Z,38.46
2022-10-17T06:21:29.104Z,38.45
2022-10-17T06:24:33.516Z,38.13
2022-10-17T06:27:36.838Z,38.28
2022-10-17T06:30:40.214Z,38.03
2022-10-17T06:33:43.785Z,37.80
2022-10-17T06:36:46.986Z,37.93
2022-10-17T06:39:51.399Z,37.96
2022-10-17T06:42:54.381Z,37.86
2022-10-17T06:49:00.363Z,37.70
2022-10-17T06:52:03.351Z,37.85
2022-10-17T06:55:08.481Z,37.61
2022-10-17T06:58:11.469Z,37.89
2022-10-17T07:01:14.946Z,37.46
2022-10-17T07:04:17.982Z,37.92
2022-10-17T07:07:21.043Z,37.57
2022-10-17T07:10:25.446Z,37.64
2022-10-17T07:13:28.537Z,37.95
2022-10-17T07:16:31.541Z,38.04
2022-10-17T07:19:34.706Z,37.88
2022-10-17T07:22:37.673Z,38.11
2022-10-17T07:25:42.098Z,37.74
2022-10-17T07:28:46.778Z,37.81
2022-10-17T07:31:50.382Z,37.74
2022-10-17T07:34:53.408Z,37.99
2022-10-17T07:37:56.428Z,38.15
2022-10-17T07:41:02.426Z,37.73
2022-10-17T07:44:05.646Z,37.57
2022-10-17T07:47:08.713Z,37.55
2022-10-17T07:50:11.891Z,37.53
2022-10-17T07:53:15.080Z,37.65
2022-10-17T07:56:19.499Z,38.27
2022-10-17T07:59:22.549Z,37.60
2022-10-17T08:02:27.471Z,38.07
2022-10-17T08:05:30.925Z,38.04
2022-10-17T08:08:34.056Z,37.93
2022-10-17T08:11:38.708Z,38.31
2022-10-17T08:14:41.876Z,38.10
2022-10-17T08:17:44.890Z,37.92
2022-10-17T08:20:48.742Z,38.02
2022-10-17T08:23:51.770Z,38.46
2022-10-17T08:26:58.267Z,37.96
2022-10-17T08:30:01.401Z,38.03
2022-10-17T08:33:04.481Z,38.04
2022-10-17T08:36:08.717Z,38.29
2022-10-17T08:39:11.739Z,38.12
2022-10-17T08:42:35.769Z,38.56
2022-10-17T08:45:46.386Z,38.73
2022-10-17T08:48:52.805Z,38.92
2022-10-17T08:52:01.001Z,38.76
2022-10-17T08:55:04.102Z,38.40
2022-10-17T08:58:15.438Z,38.59
2022-10-17T09:01:34.802Z,38.65
2022-10-17T09:04:52.871Z,38.70
2022-10-17T09:08:06.296Z,38.82
2022-10-17T09:11:22.560Z,38.96
2022-10-17T09:14:45.629Z,39.23
2022-10-17T09:17:55.880Z,39.04
2022-10-17T09:21:03.378Z,38.91
2022-10-17T09:24:15.833Z,38.84
2022-10-17T09:27:27.295Z,39.04
2022-10-17T09:30:45.045Z,38.63
2022-10-17T09:33:55.122Z,39.09
2022-10-17T09:37:00.582Z,38.55
2022-10-17T09:40:03.609Z,38.63
2022-10-17T09:43:08.947Z,38.78
2022-10-17T09:46:21.275Z,38.68
2022-10-17T09:49:30.452Z,38.77
2022-10-17T09:52:36.790Z,39.04
2022-10-17T09:55:43.359Z,38.74
2022-10-17T09:58:48.930Z,38.74
2022-10-17T10:02:09.079Z,39.07
2022-10-17T10:05:17.789Z,38.55
2022-10-17T10:08:21.277Z,38.97
2022-10-17T10:11:26.985Z,38.88
2022-10-17T10:14:33.458Z,39.06
2022-10-17T10:17:41.799Z,38.83
2022-10-17T10:20:46.871Z,39.28
2022-10-17T10:24:13.356Z,39.16
2022-10-17T10:27:18.758Z,38.91
2022-10-17T10:30:27.049Z,39.32
2022-10-17T10:33:33.235Z,38.72
2022-10-17T10:36:49.305Z,39.14
2022-10-17T10:39:54.541Z,39.02
2022-10-17T10:43:04.900Z,39.19
2022-10-17T10:46:19.198Z,39.15
2022-10-17T10:49:33.524Z,39.31
2022-10-17T10:52:43.937Z,38.99
2022-10-17T10:55:51.517Z,39.10
2022-10-17T10:58:58.225Z,39.04
2022-10-17T11:02:06.231Z,39.13
2022-10-17T11:05:19.102Z,39.48
2022-10-17T11:08:30.268Z,39.65
2022-10-17T11:11:39.272Z,39.17
2022-10-17T11:14:48.165Z,39.29
2022-10-17T11:17:58.113Z,39.19
2022-10-17T11:21:11.778Z,39.26
2022-10-17T11:24:21.888Z,39.32
2022-10-17T11:27:26.010Z,39.84
2022-10-17T11:30:41.162Z,39.78
2022-10-17T11:33:48.317Z,39.85
2022-10-17T11:36:57.923Z,39.29
2022-10-17T11:40:04.250Z,39.70
2022-10-17T11:43:16.078Z,39.47
2022-10-17T11:46:23.836Z,39.27
2022-10-17T11:49:34.217Z,39.46
2022-10-17T11:53:02.728Z,39.95
2022-10-17T11:56:06.703Z,39.96
2022-10-17T11:59:31.960Z,40.22
2022-10-17T12:02:43.743Z,40.07
2022-10-17T12:05:51.790Z,39.92
2022-10-17T12:09:02.631Z,39.78
2022-10-17T12:12:05.890Z,39.91
2022-10-17T12:15:38.944Z,40.21
2022-10-17T12:18:42.052Z,39.83
2022-10-17T12:21:57.065Z,40.23
2022-10-17T12:25:03.848Z,39.89
2022-10-17T12:28:16.529Z,40.13
2022-10-17T12:31:29.662Z,39.76
2022-10-17T12:34:37.049Z,39.99
2022-10-17T12:38:03.730Z,40.07
2022-10-17T12:41:08.423Z,40.45
2022-10-17T12:44:38.047Z,40.12
2022-10-17T12:47:41.098Z,40.39
2022-10-17T12:54:37.823Z,40.54
2022-10-17T12:57:58.735Z,40.22
2022-10-17T13:04:25.979Z,40.15
2022-10-17T13:07:30.140Z,40.15
2022-10-17T13:10:38.843Z,40.58
2022-10-17T13:13:48.883Z,40.46
2022-10-17T13:16:55.358Z,40.09
2022-10-17T13:19:59.225Z,40.57
2022-10-17T13:23:02.396Z,40.13
2022-10-17T13:26:14.248Z,40.37
2022-10-17T13:29:20.346Z,40.42
2022-10-17T13:32:24.614Z,40.32
2022-10-17T13:35:55.420Z,40.42
2022-10-17T13:38:54.544Z,40.60
2022-10-17T13:41:59.542Z,40.37
2022-10-17T13:45:04.690Z,40.31
2022-10-17T13:48:18.372Z,40.57
2022-10-17T13:51:21.658Z,40.44
2022-10-17T13:54:35.292Z,40.27
2022-10-17T13:57:38.283Z,40.35
2022-10-17T14:00:42.806Z,40.68
2022-10-17T14:03:48.912Z,40.43
2022-10-17T14:06:54.140Z,40.67
2022-10-17T14:09:57.292Z,40.81
2022-10-17T14:13:01.699Z,40.34
2022-10-17T14:16:08.603Z,40.75
2022-10-17T14:19:22.552Z,40.84
2022-10-17T14:22:29.578Z,40.57
2022-10-17T14:25:35.586Z,40.53
2022-10-17T14:28:39.794Z,40.73
2022-10-17T14:31:44.354Z,40.65
2022-10-17T14:34:48.072Z,40.47
2022-10-17T14:37:54.129Z,40.47
2022-10-17T14:41:22.072Z,40.66
2022-10-17T14:44:27.645Z,40.55
2022-10-17T14:47:43.085Z,40.91
2022-10-17T14:51:11.806Z,40.85
2022-10-17T14:54:23.474Z,41.03
2022-10-17T14:57:42.986Z,40.85
2022-10-17T15:00:46.063Z,40.33
2022-10-17T15:03:50.471Z,40.56
2022-10-17T15:06:56.060Z,39.91
2022-10-17T15:09:59.130Z,39.64
2022-10-17T15:16:27.443Z,39.37
2022-10-17T15:19:31.907Z,39.18
2022-10-17T15:22:36.635Z,39.16
2022-10-17T15:25:40.448Z,38.67
2022-10-17T15:28:43.890Z,38.18
2022-10-17T15:31:47.328Z,38.36
2022-10-17T15:34:52.162Z,38.15
2022-10-17T15:37:55.754Z,37.76
2022-10-17T15:40:58.752Z,38.73
2022-10-17T15:44:01.903Z,38.83
2022-10-17T15:47:05.248Z,37.96
2022-10-17T15:50:14.490Z,38.11
2022-10-17T15:53:17.518Z,38.31
2022-10-17T15:56:24.005Z,38.40
2022-10-17T15:59:31.648Z,37.97
2022-10-17T16:02:35.322Z,37.31
2022-10-17T16:05:39.774Z,36.95
2022-10-17T16:08:42.766Z,36.58
2022-10-17T16:11:46.559Z,36.36
2022-10-17T16:14:49.571Z,36.38
2022-10-17T16:17:53.692Z,36.74
2022-10-17T16:20:58.302Z,36.26
2022-10-17T16:24:02.215Z,36.00
2022-10-17T16:27:05.268Z,35.92
2022-10-17T16:30:09.687Z,35.91
2022-10-17T16:33:13.510Z,35.95
2022-10-17T16:36:18.546Z,35.26
2022-10-17T16:39:21.714Z,36.53
2022-10-17T16:42:24.877Z,36.88
2022-10-17T16:45:27.968Z,37.49
2022-10-17T16:48:31.085Z,37.78
2022-10-17T16:51:36.980Z,37.44
2022-10-17T16:54:40.012Z,37.29
2022-10-17T17:00:53.082Z,37.55
2022-10-17T17:03:56.910Z,38.25
2022-10-17T17:07:01.336Z,38.66
2022-10-17T17:10:04.956Z,38.84
2022-10-17T17:13:07.982Z,38.71
2022-10-17T17:16:12.964Z,38.65
2022-10-17T17:19:18.027Z,39.03
2022-10-17T17:22:22.445Z,39.17
2022-10-17T17:25:25.561Z,39.28
2022-10-17T17:28:29.200Z,39.77
2022-10-17T17:31:34.526Z,39.80
2022-10-17T17:34:38.505Z,39.89
2022-10-17T17:37:42.954Z,40.02
2022-10-17T17:40:50.530Z,40.07
2022-10-17T17:43:54.828Z,40.40
2022-10-17T17:46:57.887Z,40.09
2022-10-17T17:50:00.941Z,39.83
2022-10-17T17:53:05.559Z,39.81
2022-10-17T17:56:11.614Z,40.17
2022-10-17T17:59:14.688Z,40.07
2022-10-17T18:02:17.819Z,39.94
2022-10-17T18:05:21.280Z,40.08
2022-10-17T18:08:25.738Z,39.91
2022-10-17T18:11:29.534Z,39.96
2022-10-17T18:14:32.644Z,39.90
2022-10-17T18:17:36.076Z,39.88
2022-10-17T18:20:41.783Z,39.62
2022-10-17T18:23:47.920Z,40.14
2022-10-17T18:26:51.131Z,39.72
2022-10-17T18:29:54.207Z,39.90
2022-10-17T18:32:57.297Z,39.58
2022-10-17T18:36:07.204Z,39.59
2022-10-17T18:39:11.739Z,39.27
2022-10-17T18:42:14.710Z,38.98
2022-10-17T18:45:17.969Z,39.15
2022-10-17T18:48:21.040Z,39.05
2022-10-17T18:51:26.223Z,39.21
2022-10-17T18:54:33.639Z,39.00
2022-10-17T18:57:36.647Z,39.38
2022-10-17T19:00:39.693Z,39.45
2022-10-17T19:03:43.308Z,39.29
2022-10-17T19:06:46.297Z,39.29
2022-10-17T19:09:50.797Z,38.67
2022-10-17T19:12:54.233Z,38.52
2022-10-17T19:15:57.237Z,38.46
2022-10-17T19:19:02.598Z,38.67
2022-10-17T19:22:05.779Z,38.46
2022-10-17T19:25:11.205Z,38.39
2022-10-17T19:28:14.478Z,38.25
2022-10-17T19:31:19.381Z,38.16
2022-10-17T19:34:25.144Z,38.24
2022-10-17T19:37:28.858Z,38.13
2022-10-17T19:40:35.191Z,38.09
2022-10-17T19:43:38.725Z,38.01
2022-10-17T19:46:44.371Z,38.09
2022-10-17T19:49:50.000Z,37.95
2022-10-17T19:52:53.341Z,37.69
2022-10-17T19:55:58.122Z,37.96
2022-10-17T19:59:01.207Z,37.98
2022-10-17T20:02:04.323Z,37.56
2022-10-17T20:05:21.667Z,37.69
2022-10-17T20:11:36.445Z,37.56
2022-10-17T20:14:41.156Z,37.57
2022-10-17T20:17:44.298Z,37.40
2022-10-17T20:20:47.366Z,37.55
2022-10-17T20:23:50.699Z,37.52
2022-10-17T20:26:55.159Z,36.97
2022-10-17T20:30:01.850Z,37.45
2022-10-17T20:33:05.073Z,37.18
2022-10-17T20:36:09.326Z,37.21
2022-10-17T20:39:13.843Z,37.13
2022-10-17T20:42:18.333Z,37.14
2022-10-17T20:45:37.349Z,37.22
2022-10-17T20:48:45.811Z,37.10
2022-10-17T20:51:49.034Z,36.83
2022-10-17T20:54:52.024Z,36.75
2022-10-17T20:57:56.512Z,36.79
2022-10-17T21:00:59.617Z,37.08
2022-10-17T21:04:26.839Z,37.12
2022-10-17T21:07:26.440Z,36.84
2022-10-17T21:10:35.291Z,36.87
2022-10-17T21:13:40.894Z,36.90
2022-10-17T21:16:44.433Z,37.01
2022-10-17T21:19:48.540Z,36.93
2022-10-17T21:22:52.357Z,37.05
2022-10-17T21:25:55.287Z,36.93
2022-10-17T21:29:03.006Z,37.02
2022-10-17T21:32:14.651Z,37.03
2022-10-17T21:35:28.295Z,37.29
2022-10-17T21:38:31.644Z,37.04
2022-10-17T21:41:34.992Z,37.06
2022-10-17T21:44:39.451Z,36.95
2022-10-17T21:47:55.033Z,36.88
2022-10-17T21:51:07.736Z,36.99
2022-10-17T21:54:10.977Z,36.92
2022-10-17T21:57:14.001Z,36.84
2022-10-17T22:00:19.069Z,36.80
2022-10-17T22:03:22.120Z,36.85
2022-10-17T22:06:39.746Z,36.80
2022-10-17T22:09:43.775Z,36.90
2022-10-17T22:12:46.773Z,37.08
2022-10-17T22:15:51.245Z,36.87
2022-10-17T22:19:00.511Z,36.61
2022-10-17T22:22:06.374Z,36.82
2022-10-17T22:25:10.345Z,36.83
2022-10-17T22:28:13.375Z,36.65
2022-10-17T22:31:17.811Z,36.89
2022-10-17T22:34:21.040Z,36.59
2022-10-17T22:37:24.386Z,36.68
2022-10-17T22:40:27.425Z,36.71
2022-10-17T22:43:30.461Z,36.80
2022-10-17T22:46:35.017Z,36.57
2022-10-17T22:49:38.025Z,36.80
2022-10-17T22:52:41.058Z,36.75
2022-10-17T22:55:44.015Z,36.56
2022-10-17T22:58:47.689Z,36.71
2022-10-17T23:01:52.172Z,36.83
2022-10-17T23:04:55.313Z,36.82
2022-10-17T23:07:58.290Z,36.47
2022-10-17T23:11:01.335Z,36.34
2022-10-17T23:14:04.325Z,36.53
2022-10-17T23:17:09.048Z,36.76
2022-10-17T23:20:12.625Z,36.56
2022-10-17T23:23:15.725Z,36.58
2022-10-17T23:26:18.723Z,36.74
2022-10-17T23:29:22.233Z,37.11
2022-10-17T23:32:26.719Z,36.53
2022-10-17T23:35:29.899Z,36.57
2022-10-17T23:38:33.185Z,36.72
2022-10-17T23:41:36.181Z,36.50
2022-10-17T23:44:39.165Z,36.65
2022-10-17T23:47:43.610Z,36.67
2022-10-17T23:50:46.690Z,36.54
2022-10-17T23:53:49.723Z,36.44
2022-10-17T23:56:53.001Z,36.84
2022-10-17T23:59:56.212Z,37.29
